sensor_id;sensor_type;location;lat;lon;timestamp;temperature;humidity
37086;DHT22;23001;45.952;12.676;2024-01-07T00:00:18;11.10;99.90
37086;DHT22;23001;45.952;12.676;2024-01-07T00:02:44;11.00;99.90
37086;DHT22;23001;45.952;12.676;2024-01-07T00:05:09;10.90;99.90
37086;DHT22;23001;45.952;12.676;2024-01-07T00:07:35;10.90;99.90
37086;DHT22;23001;45.952;12.676;2024-01-07T00:10:01;10.80;99.90
37086;DHT22;23001;45.952;12.676;2024-01-07T00:12:26;10.80;99.90
37086;DHT22;23001;45.952;12.676;2024-01-07T00:14:52;10.80;99.90
37086;DHT22;23001;45.952;12.676;2024-01-07T00:17:18;10.80;99.90
37086;DHT22;23001;45.952;12.676;2024-01-07T00:19:43;10.80;99.90
37086;DHT22;23001;45.952;12.676;2024-01-07T00:22:09;10.80;99.90
37086;DHT22;23001;45.952;12.676;2024-01-07T00:24:35;10.80;99.90
37086;DHT22;23001;45.952;12.676;2024-01-07T00:27:01;10.80;99.90
37086;DHT22;23001;45.952;12.676;2024-01-07T00:29:29;10.70;99.90
37086;DHT22;23001;45.952;12.676;2024-01-07T00:31:55;10.60;99.90
37086;DHT22;23001;45.952;12.676;2024-01-07T00:34:24;10.50;99.90
37086;DHT22;23001;45.952;12.676;2024-01-07T00:36:49;10.60;99.90
37086;DHT22;23001;45.952;12.676;2024-01-07T00:39:15;10.60;99.90
37086;DHT22;23001;45.952;12.676;2024-01-07T00:41:41;10.60;99.90
37086;DHT22;23001;45.952;12.676;2024-01-07T00:44:06;10.60;99.90
37086;DHT22;23001;45.952;12.676;2024-01-07T00:46:32;10.60;99.90
37086;DHT22;23001;45.952;12.676;2024-01-07T00:48:58;10.60;99.90
37086;DHT22;23001;45.952;12.676;2024-01-07T00:51:24;10.70;99.90
37086;DHT22;23001;45.952;12.676;2024-01-07T00:53:49;10.80;99.90
37086;DHT22;23001;45.952;12.676;2024-01-07T00:56:15;10.90;99.90
37086;DHT22;23001;45.952;12.676;2024-01-07T00:58:41;10.90;99.90
37086;DHT22;23001;45.952;12.676;2024-01-07T01:01:06;10.90;99.90
37086;DHT22;23001;45.952;12.676;2024-01-07T01:03:32;10.80;99.90
37086;DHT22;23001;45.952;12.676;2024-01-07T01:05:58;10.80;99.90
37086;DHT22;23001;45.952;12.676;2024-01-07T01:08:24;10.80;99.90
37086;DHT22;23001;45.952;12.676;2024-01-07T01:10:50;10.80;99.90
37086;DHT22;23001;45.952;12.676;2024-01-07T01:13:15;10.80;99.90
37086;DHT22;23001;45.952;12.676;2024-01-07T01:15:41;10.90;99.90
37086;DHT22;23001;45.952;12.676;2024-01-07T01:18:07;10.80;99.90
37086;DHT22;23001;45.952;12.676;2024-01-07T01:20:32;10.90;99.90
37086;DHT22;23001;45.952;12.676;2024-01-07T01:22:58;11.00;99.90
37086;DHT22;23001;45.952;12.676;2024-01-07T01:25:24;11.00;99.90
37086;DHT22;23001;45.952;12.676;2024-01-07T01:27:49;11.00;99.90
37086;DHT22;23001;45.952;12.676;2024-01-07T01:30:15;10.90;99.90
37086;DHT22;23001;45.952;12.676;2024-01-07T01:32:41;11.00;99.90
37086;DHT22;23001;45.952;12.676;2024-01-07T01:35:07;10.90;99.90
37086;DHT22;23001;45.952;12.676;2024-01-07T01:37:33;11.00;99.90
37086;DHT22;23001;45.952;12.676;2024-01-07T01:39:59;11.00;99.90
37086;DHT22;23001;45.952;12.676;2024-01-07T01:42:25;11.00;99.90
37086;DHT22;23001;45.952;12.676;2024-01-07T01:44:50;11.00;99.90
37086;DHT22;23001;45.952;12.676;2024-01-07T01:47:17;10.90;99.90
37086;DHT22;23001;45.952;12.676;2024-01-07T01:49:44;10.90;99.90
37086;DHT22;23001;45.952;12.676;2024-01-07T01:52:11;10.80;99.90
37086;DHT22;23001;45.952;12.676;2024-01-07T01:54:39;10.70;99.90
37086;DHT22;23001;45.952;12.676;2024-01-07T01:57:05;10.60;99.90
37086;DHT22;23001;45.952;12.676;2024-01-07T01:59:32;10.50;99.90
37086;DHT22;23001;45.952;12.676;2024-01-07T02:01:59;10.40;99.90
37086;DHT22;23001;45.952;12.676;2024-01-07T02:04:25;10.40;99.90
37086;DHT22;23001;45.952;12.676;2024-01-07T02:06:51;10.40;99.90
37086;DHT22;23001;45.952;12.676;2024-01-07T02:09:17;10.50;99.90
37086;DHT22;23001;45.952;12.676;2024-01-07T02:11:43;10.50;99.90
37086;DHT22;23001;45.952;12.676;2024-01-07T02:14:09;10.50;99.90
37086;DHT22;23001;45.952;12.676;2024-01-07T02:16:35;10.50;99.90
37086;DHT22;23001;45.952;12.676;2024-01-07T02:19:00;10.50;99.90
37086;DHT22;23001;45.952;12.676;2024-01-07T02:21:26;10.30;99.90
37086;DHT22;23001;45.952;12.676;2024-01-07T02:23:52;10.10;99.90
37086;DHT22;23001;45.952;12.676;2024-01-07T02:26:17;10.00;99.90
37086;DHT22;23001;45.952;12.676;2024-01-07T02:28:43;9.90;99.90
37086;DHT22;23001;45.952;12.676;2024-01-07T02:31:09;9.80;99.90
37086;DHT22;23001;45.952;12.676;2024-01-07T02:33:35;9.70;99.90
37086;DHT22;23001;45.952;12.676;2024-01-07T02:36:00;9.70;99.90
37086;DHT22;23001;45.952;12.676;2024-01-07T02:38:26;9.80;99.90
37086;DHT22;23001;45.952;12.676;2024-01-07T02:40:51;9.80;99.90
37086;DHT22;23001;45.952;12.676;2024-01-07T02:43:17;9.80;99.90
37086;DHT22;23001;45.952;12.676;2024-01-07T02:45:43;9.80;99.90
37086;DHT22;23001;45.952;12.676;2024-01-07T02:48:08;9.70;99.90
37086;DHT22;23001;45.952;12.676;2024-01-07T02:50:34;9.70;99.90
37086;DHT22;23001;45.952;12.676;2024-01-07T02:53:00;9.70;99.90
37086;DHT22;23001;45.952;12.676;2024-01-07T02:55:25;9.60;99.90
37086;DHT22;23001;45.952;12.676;2024-01-07T02:57:51;9.60;99.90
37086;DHT22;23001;45.952;12.676;2024-01-07T03:00:17;9.60;99.90
37086;DHT22;23001;45.952;12.676;2024-01-07T03:02:42;9.60;99.90
37086;DHT22;23001;45.952;12.676;2024-01-07T03:05:08;9.50;99.90
37086;DHT22;23001;45.952;12.676;2024-01-07T03:07:34;9.50;99.90
37086;DHT22;23001;45.952;12.676;2024-01-07T03:09:59;9.50;99.90
37086;DHT22;23001;45.952;12.676;2024-01-07T03:12:25;9.50;99.90
37086;DHT22;23001;45.952;12.676;2024-01-07T03:14:51;9.40;99.90
37086;DHT22;23001;45.952;12.676;2024-01-07T03:17:16;9.40;99.90
37086;DHT22;23001;45.952;12.676;2024-01-07T03:19:43;9.40;99.90
37086;DHT22;23001;45.952;12.676;2024-01-07T03:22:08;9.40;99.90
37086;DHT22;23001;45.952;12.676;2024-01-07T03:24:34;9.40;99.90
37086;DHT22;23001;45.952;12.676;2024-01-07T03:27:00;9.40;99.90
37086;DHT22;23001;45.952;12.676;2024-01-07T03:29:25;9.30;99.90
37086;DHT22;23001;45.952;12.676;2024-01-07T03:31:51;9.30;99.90
37086;DHT22;23001;45.952;12.676;2024-01-07T03:34:18;9.30;99.90
37086;DHT22;23001;45.952;12.676;2024-01-07T03:36:44;9.30;99.90
37086;DHT22;23001;45.952;12.676;2024-01-07T03:39:10;9.20;99.90
37086;DHT22;23001;45.952;12.676;2024-01-07T03:41:35;9.30;99.90
37086;DHT22;23001;45.952;12.676;2024-01-07T03:44:01;9.30;99.90
37086;DHT22;23001;45.952;12.676;2024-01-07T03:46:27;9.30;99.90
37086;DHT22;23001;45.952;12.676;2024-01-07T03:48:53;9.20;99.90
37086;DHT22;23001;45.952;12.676;2024-01-07T03:51:18;9.20;99.90
37086;DHT22;23001;45.952;12.676;2024-01-07T03:53:44;9.20;99.90
37086;DHT22;23001;45.952;12.676;2024-01-07T03:56:10;9.10;99.90
37086;DHT22;23001;45.952;12.676;2024-01-07T03:58:35;9.20;99.90
37086;DHT22;23001;45.952;12.676;2024-01-07T04:01:01;9.20;99.90
37086;DHT22;23001;45.952;12.676;2024-01-07T04:03:27;9.10;99.90
37086;DHT22;23001;45.952;12.676;2024-01-07T04:05:53;9.10;99.90
37086;DHT22;23001;45.952;12.676;2024-01-07T04:08:18;9.10;99.90
37086;DHT22;23001;45.952;12.676;2024-01-07T04:10:44;9.20;99.90
37086;DHT22;23001;45.952;12.676;2024-01-07T04:13:10;9.30;99.90
37086;DHT22;23001;45.952;12.676;2024-01-07T04:15:35;9.30;99.90
37086;DHT22;23001;45.952;12.676;2024-01-07T04:18:02;9.30;99.90
37086;DHT22;23001;45.952;12.676;2024-01-07T04:20:29;9.30;99.90
37086;DHT22;23001;45.952;12.676;2024-01-07T04:22:55;9.30;99.90
37086;DHT22;23001;45.952;12.676;2024-01-07T04:25:20;9.30;99.90
37086;DHT22;23001;45.952;12.676;2024-01-07T04:27:46;9.30;99.90
37086;DHT22;23001;45.952;12.676;2024-01-07T04:30:12;9.40;99.90
37086;DHT22;23001;45.952;12.676;2024-01-07T04:32:37;9.30;99.90
37086;DHT22;23001;45.952;12.676;2024-01-07T04:35:03;9.30;99.90
37086;DHT22;23001;45.952;12.676;2024-01-07T04:37:29;9.30;99.90
37086;DHT22;23001;45.952;12.676;2024-01-07T04:39:54;9.30;99.90
37086;DHT22;23001;45.952;12.676;2024-01-07T04:42:20;9.30;99.90
37086;DHT22;23001;45.952;12.676;2024-01-07T04:44:46;9.30;99.90
37086;DHT22;23001;45.952;12.676;2024-01-07T04:47:31;9.30;99.90
37086;DHT22;23001;45.952;12.676;2024-01-07T04:49:59;9.30;99.90
37086;DHT22;23001;45.952;12.676;2024-01-07T04:52:25;9.30;99.90
37086;DHT22;23001;45.952;12.676;2024-01-07T04:54:51;9.30;99.90
37086;DHT22;23001;45.952;12.676;2024-01-07T04:57:18;9.30;99.90
37086;DHT22;23001;45.952;12.676;2024-01-07T04:59:43;9.30;99.90
37086;DHT22;23001;45.952;12.676;2024-01-07T05:02:10;9.20;99.90
37086;DHT22;23001;45.952;12.676;2024-01-07T05:04:36;9.30;99.90
37086;DHT22;23001;45.952;12.676;2024-01-07T05:07:02;9.30;99.90
37086;DHT22;23001;45.952;12.676;2024-01-07T05:09:28;9.20;99.90
37086;DHT22;23001;45.952;12.676;2024-01-07T05:11:54;9.20;99.90
37086;DHT22;23001;45.952;12.676;2024-01-07T05:14:19;9.20;99.90
37086;DHT22;23001;45.952;12.676;2024-01-07T05:16:45;9.20;99.90
37086;DHT22;23001;45.952;12.676;2024-01-07T05:19:10;9.20;99.90
37086;DHT22;23001;45.952;12.676;2024-01-07T05:21:36;9.20;99.90
37086;DHT22;23001;45.952;12.676;2024-01-07T05:24:02;9.30;99.90
37086;DHT22;23001;45.952;12.676;2024-01-07T05:26:28;9.40;99.90
37086;DHT22;23001;45.952;12.676;2024-01-07T05:28:54;9.40;99.90
37086;DHT22;23001;45.952;12.676;2024-01-07T05:31:19;9.30;99.90
37086;DHT22;23001;45.952;12.676;2024-01-07T05:33:45;9.40;99.90
37086;DHT22;23001;45.952;12.676;2024-01-07T05:36:11;9.40;99.90
37086;DHT22;23001;45.952;12.676;2024-01-07T05:38:37;9.40;99.90
37086;DHT22;23001;45.952;12.676;2024-01-07T05:41:04;9.40;99.90
37086;DHT22;23001;45.952;12.676;2024-01-07T05:43:30;9.40;99.90
37086;DHT22;23001;45.952;12.676;2024-01-07T05:45:55;9.40;99.90
37086;DHT22;23001;45.952;12.676;2024-01-07T05:48:22;9.40;99.90
37086;DHT22;23001;45.952;12.676;2024-01-07T05:50:48;9.40;99.90
37086;DHT22;23001;45.952;12.676;2024-01-07T05:53:14;9.40;99.90
37086;DHT22;23001;45.952;12.676;2024-01-07T05:55:40;9.40;99.90
37086;DHT22;23001;45.952;12.676;2024-01-07T05:58:05;9.50;99.90
37086;DHT22;23001;45.952;12.676;2024-01-07T06:00:31;9.60;99.90
37086;DHT22;23001;45.952;12.676;2024-01-07T06:02:57;9.60;99.90
37086;DHT22;23001;45.952;12.676;2024-01-07T06:05:23;9.60;99.90
37086;DHT22;23001;45.952;12.676;2024-01-07T06:07:49;9.60;99.90
37086;DHT22;23001;45.952;12.676;2024-01-07T06:10:14;9.60;99.90
37086;DHT22;23001;45.952;12.676;2024-01-07T06:12:40;9.60;99.90
37086;DHT22;23001;45.952;12.676;2024-01-07T06:15:06;9.60;99.90
37086;DHT22;23001;45.952;12.676;2024-01-07T06:17:33;9.60;99.90
37086;DHT22;23001;45.952;12.676;2024-01-07T06:19:58;9.60;99.90
37086;DHT22;23001;45.952;12.676;2024-01-07T06:22:24;9.60;99.90
37086;DHT22;23001;45.952;12.676;2024-01-07T06:24:50;9.60;99.90
37086;DHT22;23001;45.952;12.676;2024-01-07T06:27:16;9.60;99.90
37086;DHT22;23001;45.952;12.676;2024-01-07T06:29:42;9.60;99.90
37086;DHT22;23001;45.952;12.676;2024-01-07T06:32:07;9.60;99.90
37086;DHT22;23001;45.952;12.676;2024-01-07T06:34:37;9.80;99.90
37086;DHT22;23001;45.952;12.676;2024-01-07T06:37:03;9.80;99.90
37086;DHT22;23001;45.952;12.676;2024-01-07T06:39:29;9.70;99.90
37086;DHT22;23001;45.952;12.676;2024-01-07T06:41:55;9.70;99.90
37086;DHT22;23001;45.952;12.676;2024-01-07T06:44:21;9.70;99.90
37086;DHT22;23001;45.952;12.676;2024-01-07T06:46:46;9.70;99.90
37086;DHT22;23001;45.952;12.676;2024-01-07T06:49:12;9.70;99.90
37086;DHT22;23001;45.952;12.676;2024-01-07T06:51:38;9.70;99.90
37086;DHT22;23001;45.952;12.676;2024-01-07T06:54:08;9.80;99.90
37086;DHT22;23001;45.952;12.676;2024-01-07T06:56:34;9.70;99.90
37086;DHT22;23001;45.952;12.676;2024-01-07T06:59:00;9.70;99.90
37086;DHT22;23001;45.952;12.676;2024-01-07T07:01:26;9.70;99.90
37086;DHT22;23001;45.952;12.676;2024-01-07T07:03:51;9.80;99.90
37086;DHT22;23001;45.952;12.676;2024-01-07T07:06:17;9.80;99.90
37086;DHT22;23001;45.952;12.676;2024-01-07T07:08:43;9.80;99.90
37086;DHT22;23001;45.952;12.676;2024-01-07T07:11:09;9.80;99.90
37086;DHT22;23001;45.952;12.676;2024-01-07T07:13:35;9.80;99.90
37086;DHT22;23001;45.952;12.676;2024-01-07T07:16:00;9.80;99.90
37086;DHT22;23001;45.952;12.676;2024-01-07T07:18:26;9.80;99.90
37086;DHT22;23001;45.952;12.676;2024-01-07T07:20:52;9.90;99.90
37086;DHT22;23001;45.952;12.676;2024-01-07T07:23:18;9.80;99.90
37086;DHT22;23001;45.952;12.676;2024-01-07T07:25:44;9.90;99.90
37086;DHT22;23001;45.952;12.676;2024-01-07T07:28:10;9.90;99.90
37086;DHT22;23001;45.952;12.676;2024-01-07T07:30:37;9.90;99.90
37086;DHT22;23001;45.952;12.676;2024-01-07T07:33:02;10.00;99.90
37086;DHT22;23001;45.952;12.676;2024-01-07T07:35:28;10.10;99.90
37086;DHT22;23001;45.952;12.676;2024-01-07T07:37:54;10.00;99.90
37086;DHT22;23001;45.952;12.676;2024-01-07T07:40:20;10.10;99.90
37086;DHT22;23001;45.952;12.676;2024-01-07T07:42:46;10.10;99.90
37086;DHT22;23001;45.952;12.676;2024-01-07T07:45:12;10.10;99.90
37086;DHT22;23001;45.952;12.676;2024-01-07T07:47:38;10.10;99.90
37086;DHT22;23001;45.952;12.676;2024-01-07T07:50:07;10.00;99.90
37086;DHT22;23001;45.952;12.676;2024-01-07T07:52:33;10.00;99.90
37086;DHT22;23001;45.952;12.676;2024-01-07T07:54:59;10.00;99.90
37086;DHT22;23001;45.952;12.676;2024-01-07T07:57:24;10.00;99.90
37086;DHT22;23001;45.952;12.676;2024-01-07T07:59:51;10.00;99.90
37086;DHT22;23001;45.952;12.676;2024-01-07T08:02:17;10.10;99.90
37086;DHT22;23001;45.952;12.676;2024-01-07T08:04:43;10.10;99.90
37086;DHT22;23001;45.952;12.676;2024-01-07T08:07:09;10.20;99.90
37086;DHT22;23001;45.952;12.676;2024-01-07T08:09:35;10.20;99.90
37086;DHT22;23001;45.952;12.676;2024-01-07T08:12:05;10.20;99.90
37086;DHT22;23001;45.952;12.676;2024-01-07T08:14:32;10.20;99.90
37086;DHT22;23001;45.952;12.676;2024-01-07T08:16:58;10.20;99.90
37086;DHT22;23001;45.952;12.676;2024-01-07T08:19:24;10.20;99.90
37086;DHT22;23001;45.952;12.676;2024-01-07T08:21:53;10.20;99.90
37086;DHT22;23001;45.952;12.676;2024-01-07T08:24:21;10.20;99.90
37086;DHT22;23001;45.952;12.676;2024-01-07T08:26:47;10.20;99.90
37086;DHT22;23001;45.952;12.676;2024-01-07T08:29:13;10.30;99.90
37086;DHT22;23001;45.952;12.676;2024-01-07T08:31:39;10.30;99.90
37086;DHT22;23001;45.952;12.676;2024-01-07T08:34:05;10.30;99.90
37086;DHT22;23001;45.952;12.676;2024-01-07T08:36:31;10.30;99.90
37086;DHT22;23001;45.952;12.676;2024-01-07T08:38:56;10.40;99.90
37086;DHT22;23001;45.952;12.676;2024-01-07T08:41:22;10.40;99.90
37086;DHT22;23001;45.952;12.676;2024-01-07T08:43:48;10.40;99.90
37086;DHT22;23001;45.952;12.676;2024-01-07T08:46:16;10.40;99.90
37086;DHT22;23001;45.952;12.676;2024-01-07T08:48:41;10.50;99.90
37086;DHT22;23001;45.952;12.676;2024-01-07T08:51:07;10.50;99.90
37086;DHT22;23001;45.952;12.676;2024-01-07T08:53:33;10.50;99.90
37086;DHT22;23001;45.952;12.676;2024-01-07T08:55:59;10.60;99.90
37086;DHT22;23001;45.952;12.676;2024-01-07T08:58:25;10.60;99.90
37086;DHT22;23001;45.952;12.676;2024-01-07T09:00:51;10.70;99.90
37086;DHT22;23001;45.952;12.676;2024-01-07T09:03:17;10.70;99.90
37086;DHT22;23001;45.952;12.676;2024-01-07T09:05:43;10.60;99.90
37086;DHT22;23001;45.952;12.676;2024-01-07T09:08:09;10.60;99.90
37086;DHT22;23001;45.952;12.676;2024-01-07T09:10:36;10.60;99.90
37086;DHT22;23001;45.952;12.676;2024-01-07T09:13:05;10.70;99.90
37086;DHT22;23001;45.952;12.676;2024-01-07T09:15:34;10.70;99.90
37086;DHT22;23001;45.952;12.676;2024-01-07T09:18:04;10.80;99.90
37086;DHT22;23001;45.952;12.676;2024-01-07T09:20:36;10.80;99.90
37086;DHT22;23001;45.952;12.676;2024-01-07T09:23:08;10.80;99.90
37086;DHT22;23001;45.952;12.676;2024-01-07T09:25:43;10.80;99.90
37086;DHT22;23001;45.952;12.676;2024-01-07T09:28:31;10.90;99.90
37086;DHT22;23001;45.952;12.676;2024-01-07T09:31:03;10.90;99.90
37086;DHT22;23001;45.952;12.676;2024-01-07T09:33:35;10.90;99.90
37086;DHT22;23001;45.952;12.676;2024-01-07T09:36:08;11.00;99.90
37086;DHT22;23001;45.952;12.676;2024-01-07T09:41:12;11.00;99.90
37086;DHT22;23001;45.952;12.676;2024-01-07T09:43:41;11.10;99.90
37086;DHT22;23001;45.952;12.676;2024-01-07T09:46:06;11.10;99.90
37086;DHT22;23001;45.952;12.676;2024-01-07T09:48:32;11.10;99.90
37086;DHT22;23001;45.952;12.676;2024-01-07T09:51:00;11.10;99.90
37086;DHT22;23001;45.952;12.676;2024-01-07T09:53:30;11.20;99.90
37086;DHT22;23001;45.952;12.676;2024-01-07T09:56:12;11.20;99.90
37086;DHT22;23001;45.952;12.676;2024-01-07T09:58:44;11.20;99.90
37086;DHT22;23001;45.952;12.676;2024-01-07T10:01:10;11.20;99.90
37086;DHT22;23001;45.952;12.676;2024-01-07T10:03:36;11.20;99.90
37086;DHT22;23001;45.952;12.676;2024-01-07T10:06:03;11.20;99.90
37086;DHT22;23001;45.952;12.676;2024-01-07T10:08:29;11.20;99.90
37086;DHT22;23001;45.952;12.676;2024-01-07T10:10:54;11.30;99.90
37086;DHT22;23001;45.952;12.676;2024-01-07T10:13:21;11.30;99.90
37086;DHT22;23001;45.952;12.676;2024-01-07T10:15:47;11.40;99.90
37086;DHT22;23001;45.952;12.676;2024-01-07T10:18:14;11.50;99.90
37086;DHT22;23001;45.952;12.676;2024-01-07T10:20:48;11.50;99.90
37086;DHT22;23001;45.952;12.676;2024-01-07T10:23:22;11.60;99.90
37086;DHT22;23001;45.952;12.676;2024-01-07T10:25:48;11.60;99.90
37086;DHT22;23001;45.952;12.676;2024-01-07T10:28:15;11.60;99.90
37086;DHT22;23001;45.952;12.676;2024-01-07T10:30:50;11.60;99.90
37086;DHT22;23001;45.952;12.676;2024-01-07T10:33:18;11.60;99.90
37086;DHT22;23001;45.952;12.676;2024-01-07T10:36:06;11.70;99.90
37086;DHT22;23001;45.952;12.676;2024-01-07T10:38:32;11.70;99.90
37086;DHT22;23001;45.952;12.676;2024-01-07T10:41:02;11.80;99.90
37086;DHT22;23001;45.952;12.676;2024-01-07T10:43:36;11.80;99.90
37086;DHT22;23001;45.952;12.676;2024-01-07T10:46:02;11.80;99.90
37086;DHT22;23001;45.952;12.676;2024-01-07T10:48:31;11.80;99.90
37086;DHT22;23001;45.952;12.676;2024-01-07T10:51:00;11.80;99.90
37086;DHT22;23001;45.952;12.676;2024-01-07T10:53:28;11.80;99.90
37086;DHT22;23001;45.952;12.676;2024-01-07T10:56:03;11.80;99.90
37086;DHT22;23001;45.952;12.676;2024-01-07T10:58:32;11.80;99.90
37086;DHT22;23001;45.952;12.676;2024-01-07T11:00:59;11.70;99.90
37086;DHT22;23001;45.952;12.676;2024-01-07T11:06:46;11.70;99.90
37086;DHT22;23001;45.952;12.676;2024-01-07T11:09:33;11.70;99.90
37086;DHT22;23001;45.952;12.676;2024-01-07T11:12:01;11.60;99.90
37086;DHT22;23001;45.952;12.676;2024-01-07T11:16:58;11.60;99.90
37086;DHT22;23001;45.952;12.676;2024-01-07T11:19:25;11.70;99.90
37086;DHT22;23001;45.952;12.676;2024-01-07T11:21:51;11.70;99.90
37086;DHT22;23001;45.952;12.676;2024-01-07T11:24:39;11.80;99.90
37086;DHT22;23001;45.952;12.676;2024-01-07T11:27:08;11.80;99.90
37086;DHT22;23001;45.952;12.676;2024-01-07T11:29:35;11.80;99.90
37086;DHT22;23001;45.952;12.676;2024-01-07T11:32:01;11.80;99.90
37086;DHT22;23001;45.952;12.676;2024-01-07T11:34:42;11.80;99.90
37086;DHT22;23001;45.952;12.676;2024-01-07T11:37:13;11.80;99.90
37086;DHT22;23001;45.952;12.676;2024-01-07T11:39:45;11.90;99.90
37086;DHT22;23001;45.952;12.676;2024-01-07T11:42:12;11.90;99.90
37086;DHT22;23001;45.952;12.676;2024-01-07T11:44:45;11.90;99.90
37086;DHT22;23001;45.952;12.676;2024-01-07T11:47:12;11.90;99.90
37086;DHT22;23001;45.952;12.676;2024-01-07T11:49:39;12.00;99.90
37086;DHT22;23001;45.952;12.676;2024-01-07T11:52:05;12.00;99.90
37086;DHT22;23001;45.952;12.676;2024-01-07T11:54:33;12.00;99.90
37086;DHT22;23001;45.952;12.676;2024-01-07T11:56:59;11.90;99.90
37086;DHT22;23001;45.952;12.676;2024-01-07T11:59:24;12.00;99.90
37086;DHT22;23001;45.952;12.676;2024-01-07T12:01:54;12.00;99.90
37086;DHT22;23001;45.952;12.676;2024-01-07T12:04:20;12.00;99.90
37086;DHT22;23001;45.952;12.676;2024-01-07T12:06:48;12.00;99.90
37086;DHT22;23001;45.952;12.676;2024-01-07T12:09:14;12.00;99.90
37086;DHT22;23001;45.952;12.676;2024-01-07T12:11:40;12.00;99.90
37086;DHT22;23001;45.952;12.676;2024-01-07T12:14:07;12.00;99.90
37086;DHT22;23001;45.952;12.676;2024-01-07T12:16:39;12.10;99.90
37086;DHT22;23001;45.952;12.676;2024-01-07T12:19:06;12.10;99.90
37086;DHT22;23001;45.952;12.676;2024-01-07T12:21:31;12.10;99.90
37086;DHT22;23001;45.952;12.676;2024-01-07T12:23:58;12.00;99.90
37086;DHT22;23001;45.952;12.676;2024-01-07T12:26:27;12.00;99.90
37086;DHT22;23001;45.952;12.676;2024-01-07T12:28:55;12.00;99.90
37086;DHT22;23001;45.952;12.676;2024-01-07T12:31:21;12.00;99.90
37086;DHT22;23001;45.952;12.676;2024-01-07T12:33:47;12.00;99.90
37086;DHT22;23001;45.952;12.676;2024-01-07T12:36:15;12.00;99.90
37086;DHT22;23001;45.952;12.676;2024-01-07T12:39:33;12.00;99.90
37086;DHT22;23001;45.952;12.676;2024-01-07T12:41:59;11.90;99.90
37086;DHT22;23001;45.952;12.676;2024-01-07T12:44:36;12.00;99.90
37086;DHT22;23001;45.952;12.676;2024-01-07T12:47:02;11.90;99.90
37086;DHT22;23001;45.952;12.676;2024-01-07T12:49:29;11.90;99.90
37086;DHT22;23001;45.952;12.676;2024-01-07T12:51:54;12.00;99.90
37086;DHT22;23001;45.952;12.676;2024-01-07T12:54:20;11.90;99.90
37086;DHT22;23001;45.952;12.676;2024-01-07T12:56:47;11.90;99.90
37086;DHT22;23001;45.952;12.676;2024-01-07T12:59:12;12.00;99.90
37086;DHT22;23001;45.952;12.676;2024-01-07T13:01:38;12.00;99.90
37086;DHT22;23001;45.952;12.676;2024-01-07T13:04:04;12.10;99.90
37086;DHT22;23001;45.952;12.676;2024-01-07T13:06:30;12.10;99.90
37086;DHT22;23001;45.952;12.676;2024-01-07T13:09:03;12.10;99.90
37086;DHT22;23001;45.952;12.676;2024-01-07T13:11:30;12.10;99.90
37086;DHT22;23001;45.952;12.676;2024-01-07T13:13:56;12.20;99.90
37086;DHT22;23001;45.952;12.676;2024-01-07T13:16:25;12.20;99.90
37086;DHT22;23001;45.952;12.676;2024-01-07T13:18:51;12.20;99.90
37086;DHT22;23001;45.952;12.676;2024-01-07T13:21:17;12.20;99.90
37086;DHT22;23001;45.952;12.676;2024-01-07T13:26:29;12.10;99.90
37086;DHT22;23001;45.952;12.676;2024-01-07T13:28:57;12.00;99.90
37086;DHT22;23001;45.952;12.676;2024-01-07T13:31:23;12.00;99.90
37086;DHT22;23001;45.952;12.676;2024-01-07T13:33:49;12.00;99.90
37086;DHT22;23001;45.952;12.676;2024-01-07T13:36:15;12.00;99.90
37086;DHT22;23001;45.952;12.676;2024-01-07T13:38:40;12.00;99.90
37086;DHT22;23001;45.952;12.676;2024-01-07T13:41:10;12.00;99.90
37086;DHT22;23001;45.952;12.676;2024-01-07T13:43:36;11.90;99.90
37086;DHT22;23001;45.952;12.676;2024-01-07T13:46:03;11.90;99.90
37086;DHT22;23001;45.952;12.676;2024-01-07T13:48:29;11.90;99.90
37086;DHT22;23001;45.952;12.676;2024-01-07T13:50:55;11.80;99.90
37086;DHT22;23001;45.952;12.676;2024-01-07T13:53:23;11.90;99.90
37086;DHT22;23001;45.952;12.676;2024-01-07T13:55:49;12.00;99.90
37086;DHT22;23001;45.952;12.676;2024-01-07T13:58:15;11.90;99.90
37086;DHT22;23001;45.952;12.676;2024-01-07T14:00:41;11.90;99.90
37086;DHT22;23001;45.952;12.676;2024-01-07T14:03:07;11.90;99.90
37086;DHT22;23001;45.952;12.676;2024-01-07T14:05:33;11.90;99.90
37086;DHT22;23001;45.952;12.676;2024-01-07T14:07:59;11.90;99.90
37086;DHT22;23001;45.952;12.676;2024-01-07T14:10:24;12.00;99.90
37086;DHT22;23001;45.952;12.676;2024-01-07T14:12:50;12.00;99.90
37086;DHT22;23001;45.952;12.676;2024-01-07T14:15:19;12.00;99.90
37086;DHT22;23001;45.952;12.676;2024-01-07T14:17:45;11.90;99.90
37086;DHT22;23001;45.952;12.676;2024-01-07T14:20:14;12.00;99.90
37086;DHT22;23001;45.952;12.676;2024-01-07T14:22:39;12.00;99.90
37086;DHT22;23001;45.952;12.676;2024-01-07T14:25:35;11.90;99.90
37086;DHT22;23001;45.952;12.676;2024-01-07T14:29:02;11.90;99.90
37086;DHT22;23001;45.952;12.676;2024-01-07T14:31:45;11.90;99.90
37086;DHT22;23001;45.952;12.676;2024-01-07T14:48:41;11.90;99.90
37086;DHT22;23001;45.952;12.676;2024-01-07T14:54:32;11.80;99.90
37086;DHT22;23001;45.952;12.676;2024-01-07T14:57:00;11.70;99.90
37086;DHT22;23001;45.952;12.676;2024-01-07T15:06:49;11.60;99.90
37086;DHT22;23001;45.952;12.676;2024-01-07T15:09:24;11.50;99.90
37086;DHT22;23001;45.952;12.676;2024-01-07T15:21:17;11.40;99.90
37086;DHT22;23001;45.952;12.676;2024-01-07T15:23:43;11.30;99.90
37086;DHT22;23001;45.952;12.676;2024-01-07T15:26:20;11.40;99.90
37086;DHT22;23001;45.952;12.676;2024-01-07T15:30:02;11.30;99.90
37086;DHT22;23001;45.952;12.676;2024-01-07T15:33:02;11.30;99.90
37086;DHT22;23001;45.952;12.676;2024-01-07T15:36:50;11.20;99.90
37086;DHT22;23001;45.952;12.676;2024-01-07T15:43:55;11.20;99.90
37086;DHT22;23001;45.952;12.676;2024-01-07T15:50:40;11.20;99.90
37086;DHT22;23001;45.952;12.676;2024-01-07T16:00:12;11.20;99.90
37086;DHT22;23001;45.952;12.676;2024-01-07T16:02:52;11.20;99.90
37086;DHT22;23001;45.952;12.676;2024-01-07T16:05:43;11.20;99.90
37086;DHT22;23001;45.952;12.676;2024-01-07T16:08:47;11.20;99.90
37086;DHT22;23001;45.952;12.676;2024-01-07T16:11:33;11.20;99.90
37086;DHT22;23001;45.952;12.676;2024-01-07T16:14:07;11.20;99.90
37086;DHT22;23001;45.952;12.676;2024-01-07T16:19:44;11.20;99.90
37086;DHT22;23001;45.952;12.676;2024-01-07T16:22:10;11.20;99.90
37086;DHT22;23001;45.952;12.676;2024-01-07T16:24:37;11.20;99.90
37086;DHT22;23001;45.952;12.676;2024-01-07T16:27:05;11.10;99.90
37086;DHT22;23001;45.952;12.676;2024-01-07T16:29:44;11.20;99.90